Terminal Aerodrome Forecast
Issued by NWS

Home | Current Version | Previous Version | Text Only | Print | Product List | Glossary On
Versions: 1 2 3 4 5 6 7 8 9 10 11 12 13 14 15 16 17 18 19 20 21 22 23 24 25 26 27 28 29 30 31 32 33 34 35 36 37 38 39 40 41 42 43
000
FTUS41 KRNK 231010 AAA
TAFBCB
TAF AMD
KBCB 231010Z 2310/2406 00000KT 1 1/2SM BR SCT003
      TEMPO 2310/2312 1/2SM FG VV001
     FM231400 28005KT P6SM SCT045
     FM231900 28006KT P6SM VCTS BKN050CB
     FM240000 30004KT P6SM SCT050 BKN250=

USA.gov is the U.S. government's official web portal to all federal, state and local government web resources and services.